createdAt,value
2023-02-11T00:02:16.531Z,-0.53
2023-02-11T00:04:45.137Z,-0.50
2023-02-11T00:07:13.732Z,-0.48
2023-02-11T00:09:42.613Z,-0.47
2023-02-11T00:12:11.100Z,-0.45
2023-02-11T00:14:39.890Z,-0.45
2023-02-11T00:17:08.688Z,-0.45
2023-02-11T00:19:37.576Z,-0.45
2023-02-11T00:22:06.857Z,-0.43
2023-02-11T00:24:36.997Z,-0.42
2023-02-11T00:27:05.660Z,-0.42
2023-02-11T00:29:34.359Z,-0.40
2023-02-11T00:32:05.890Z,-0.40
2023-02-11T00:34:35.607Z,-0.39
2023-02-11T00:37:04.849Z,-0.38
2023-02-11T00:39:33.307Z,-0.36
2023-02-11T00:42:01.815Z,-0.35
2023-02-11T00:44:30.575Z,-0.33
2023-02-11T00:46:59.549Z,-0.32
2023-02-11T00:49:28.449Z,-0.32
2023-02-11T00:51:57.122Z,-0.31
2023-02-11T00:54:26.894Z,-0.30
2023-02-11T00:56:57.247Z,-0.29
2023-02-11T00:59:26.348Z,-0.28
2023-02-11T01:01:55.149Z,-0.29
2023-02-11T01:04:23.720Z,-0.29
2023-02-11T01:06:54.085Z,-0.30
2023-02-11T01:09:22.629Z,-0.30
2023-02-11T01:11:51.417Z,-0.31
2023-02-11T01:14:20.113Z,-0.32
2023-02-11T01:16:49.008Z,-0.32
2023-02-11T01:19:17.681Z,-0.32
2023-02-11T01:21:47.716Z,-0.31
2023-02-11T01:24:16.480Z,-0.31
2023-02-11T01:26:46.028Z,-0.32
2023-02-11T01:29:14.594Z,-0.34
2023-02-11T01:31:43.366Z,-0.35
2023-02-11T01:34:12.250Z,-0.37
2023-02-11T01:36:41.667Z,-0.40
2023-02-11T01:39:10.556Z,-0.41
2023-02-11T01:41:40.253Z,-0.42
2023-02-11T01:44:33.936Z,-0.42
2023-02-11T01:47:05.183Z,-0.41
2023-02-11T01:50:00.175Z,-0.39
2023-02-11T01:52:30.800Z,-0.37
2023-02-11T01:55:24.167Z,-0.34
2023-02-11T01:57:56.767Z,-0.31
2023-02-11T02:00:38.452Z,-0.29
2023-02-11T02:03:16.870Z,-0.28
2023-02-11T02:05:53.252Z,-0.27
2023-02-11T02:08:41.771Z,-0.25
2023-02-11T02:11:10.747Z,-0.24
2023-02-11T02:13:39.554Z,-0.24
2023-02-11T02:16:13.489Z,-0.21
2023-02-11T02:19:00.684Z,-0.18
2023-02-11T02:21:45.831Z,-0.14
2023-02-11T02:24:25.295Z,-0.11
2023-02-11T02:27:04.822Z,-0.05
2023-02-11T02:30:01.245Z,-0.00
2023-02-11T02:32:48.892Z,0.06
2023-02-11T02:35:49.024Z,0.11
2023-02-11T02:38:25.567Z,0.17
2023-02-11T02:41:07.155Z,0.21
2023-02-11T02:43:37.983Z,0.28
2023-02-11T02:46:27.757Z,0.32
2023-02-11T02:48:57.490Z,0.36
2023-02-11T02:51:49.618Z,0.39
2023-02-11T02:54:37.560Z,0.42
2023-02-11T02:57:27.752Z,0.45
2023-02-11T03:00:19.772Z,0.48
2023-02-11T03:03:14.478Z,0.51
2023-02-11T03:05:55.774Z,0.53
2023-02-11T03:08:25.991Z,0.53
2023-02-11T03:10:55.786Z,0.55
2023-02-11T03:13:27.804Z,0.58
2023-02-11T03:15:58.119Z,0.60
2023-02-11T03:18:28.370Z,0.61
2023-02-11T03:20:58.035Z,0.63
2023-02-11T03:23:33.881Z,0.63
2023-02-11T03:26:19.354Z,0.64
2023-02-11T03:29:05.340Z,0.65
2023-02-11T03:31:59.480Z,0.63
2023-02-11T03:34:44.380Z,0.61
2023-02-11T03:37:20.736Z,0.61
2023-02-11T03:39:57.013Z,0.60
2023-02-11T03:42:28.552Z,0.60
2023-02-11T03:45:02.146Z,0.61
2023-02-11T03:47:32.428Z,0.63
2023-02-11T03:50:04.785Z,0.64
2023-02-11T03:52:34.862Z,0.64
2023-02-11T03:55:15.739Z,0.65
2023-02-11T03:57:44.738Z,0.66
2023-02-11T04:00:14.372Z,0.68
2023-02-11T04:02:43.052Z,0.70
2023-02-11T04:05:14.722Z,0.71
2023-02-11T04:07:43.259Z,0.73
2023-02-11T04:10:12.811Z,0.74
2023-02-11T04:12:41.351Z,0.75
2023-02-11T04:15:10.455Z,0.77
2023-02-11T04:17:42.367Z,0.77
2023-02-11T04:20:11.908Z,0.76
2023-02-11T04:22:40.738Z,0.77
2023-02-11T04:25:10.957Z,0.77
2023-02-11T04:27:39.408Z,0.78
2023-02-11T04:30:09.396Z,0.78
2023-02-11T04:32:37.908Z,0.78
2023-02-11T04:35:08.143Z,0.78
2023-02-11T04:37:36.605Z,0.78
2023-02-11T04:40:05.796Z,0.77
2023-02-11T04:42:34.496Z,0.77
2023-02-11T04:45:03.455Z,0.77
2023-02-11T04:47:31.976Z,0.77
2023-02-11T04:50:00.755Z,0.78
2023-02-11T04:52:29.632Z,0.76
2023-02-11T04:54:58.215Z,0.74
2023-02-11T04:57:26.901Z,0.73
2023-02-11T04:59:55.685Z,0.72
2023-02-11T05:02:24.278Z,0.70
2023-02-11T05:04:53.166Z,0.68
2023-02-11T05:07:21.966Z,0.67
2023-02-11T05:09:50.538Z,0.66
2023-02-11T05:12:19.222Z,0.65
2023-02-11T05:14:48.222Z,0.66
2023-02-11T05:17:16.825Z,0.67
2023-02-11T05:19:45.491Z,0.69
2023-02-11T05:22:15.006Z,0.71
2023-02-11T05:24:43.662Z,0.74
2023-02-11T05:27:12.568Z,0.76
2023-02-11T05:29:41.443Z,0.79
2023-02-11T05:32:10.028Z,0.82
2023-02-11T05:34:38.724Z,0.82
2023-02-11T05:37:07.437Z,0.83
2023-02-11T05:39:36.203Z,0.84
2023-02-11T05:42:05.216Z,0.84
2023-02-11T05:44:33.678Z,0.84
2023-02-11T05:47:02.347Z,0.85
2023-02-11T05:49:31.346Z,0.85
2023-02-11T05:52:00.123Z,0.83
2023-02-11T05:54:28.615Z,0.82
2023-02-11T05:56:57.287Z,0.82
2023-02-11T05:59:26.692Z,0.84
2023-02-11T06:01:55.286Z,0.87
2023-02-11T06:04:23.965Z,0.91
2023-02-11T06:06:52.765Z,0.94
2023-02-11T06:09:21.560Z,0.98
2023-02-11T06:11:51.464Z,1.01
2023-02-11T06:14:20.151Z,1.04
2023-02-11T06:16:48.944Z,1.06
2023-02-11T06:19:17.823Z,1.08
2023-02-11T06:21:46.307Z,1.11
2023-02-11T06:24:16.269Z,1.14
2023-02-11T06:26:44.891Z,1.17
2023-02-11T06:29:14.403Z,1.20
2023-02-11T06:31:42.941Z,1.25
2023-02-11T06:34:11.785Z,1.28
2023-02-11T06:36:41.375Z,1.32
2023-02-11T06:39:12.489Z,1.35
2023-02-11T06:41:41.214Z,1.38
2023-02-11T06:44:09.685Z,1.41
2023-02-11T06:46:38.440Z,1.44
2023-02-11T06:49:07.266Z,1.48
2023-02-11T06:51:36.264Z,1.50
2023-02-11T06:54:05.728Z,1.53
2023-02-11T06:56:35.204Z,1.56
2023-02-11T06:59:03.844Z,1.58
2023-02-11T07:01:32.608Z,1.61
2023-02-11T07:04:01.327Z,1.63
2023-02-11T07:06:29.802Z,1.66
2023-02-11T07:08:58.600Z,1.69
2023-02-11T07:11:29.444Z,1.71
2023-02-11T07:14:02.167Z,1.74
2023-02-11T07:16:31.130Z,1.76
2023-02-11T07:19:00.007Z,1.81
2023-02-11T07:21:28.678Z,1.84
2023-02-11T07:23:57.355Z,1.88
2023-02-11T07:26:29.521Z,1.92
2023-02-11T07:28:58.107Z,1.95
2023-02-11T07:31:28.551Z,1.99
2023-02-11T07:34:00.242Z,2.03
2023-02-11T07:36:30.729Z,2.08
2023-02-11T07:39:00.555Z,2.11
2023-02-11T07:41:29.233Z,2.14
2023-02-11T07:43:57.791Z,2.18
2023-02-11T07:46:28.487Z,2.20
2023-02-11T07:48:57.214Z,2.23
2023-02-11T07:51:30.103Z,2.27
2023-02-11T07:54:00.177Z,2.29
2023-02-11T07:56:29.347Z,2.31
2023-02-11T07:59:01.998Z,2.34
2023-02-11T08:01:31.195Z,2.35
2023-02-11T08:04:01.130Z,2.36
2023-02-11T08:06:32.365Z,2.37
2023-02-11T08:09:06.461Z,2.39
2023-02-11T08:11:35.163Z,2.41
2023-02-11T08:14:03.857Z,2.42
2023-02-11T08:16:34.623Z,2.44
2023-02-11T08:19:06.416Z,2.44
2023-02-11T08:21:35.114Z,2.45
2023-02-11T08:24:04.764Z,2.45
2023-02-11T08:26:35.324Z,2.46
2023-02-11T08:29:09.377Z,2.46
2023-02-11T08:31:41.064Z,2.47
2023-02-11T08:34:11.849Z,2.49
2023-02-11T08:36:42.883Z,2.51
2023-02-11T08:39:19.613Z,2.54
2023-02-11T08:41:51.670Z,2.54
2023-02-11T08:44:22.164Z,2.53
2023-02-11T08:46:52.332Z,2.54
2023-02-11T08:49:21.571Z,2.54
2023-02-11T08:51:50.670Z,2.55
2023-02-11T08:54:19.366Z,2.57
2023-02-11T08:56:53.478Z,2.61
2023-02-11T08:59:23.157Z,2.65
2023-02-11T09:01:55.458Z,2.69
2023-02-11T09:04:25.517Z,2.73
2023-02-11T09:06:54.165Z,2.76
2023-02-11T09:09:23.473Z,2.81
2023-02-11T09:11:52.020Z,2.86
2023-02-11T09:14:22.979Z,2.92
2023-02-11T09:16:52.214Z,2.98
2023-02-11T09:19:21.784Z,3.06
2023-02-11T09:21:50.797Z,3.13
2023-02-11T09:24:19.873Z,3.20
2023-02-11T09:26:50.524Z,3.23
2023-02-11T09:29:19.375Z,3.25
2023-02-11T09:31:48.178Z,3.27
2023-02-11T09:34:16.860Z,3.30
2023-02-11T09:36:45.532Z,3.32
2023-02-11T09:39:17.806Z,3.34
2023-02-11T09:41:56.320Z,3.37
2023-02-11T09:44:30.286Z,3.39
2023-02-11T09:47:06.100Z,3.41
2023-02-11T09:49:50.134Z,3.43
2023-02-11T09:52:29.048Z,3.46
2023-02-11T09:55:22.416Z,3.49
2023-02-11T09:57:51.308Z,3.55
2023-02-11T10:00:31.075Z,3.61
2023-02-11T10:02:59.742Z,3.67
2023-02-11T10:05:52.253Z,3.71
2023-02-11T10:08:42.521Z,3.74
2023-02-11T10:11:48.544Z,3.76
2023-02-11T10:15:04.837Z,3.76
2023-02-11T10:17:37.308Z,3.76
2023-02-11T10:20:25.355Z,3.77
2023-02-11T10:22:56.078Z,3.79
2023-02-11T10:25:35.470Z,3.83
2023-02-11T10:28:20.376Z,3.86
2023-02-11T10:30:52.392Z,3.89
2023-02-11T10:33:28.859Z,3.91
2023-02-11T10:35:57.312Z,3.93
2023-02-11T10:38:26.159Z,3.95
2023-02-11T10:40:54.678Z,3.98
2023-02-11T10:43:27.744Z,4.04
2023-02-11T10:45:57.265Z,4.09
2023-02-11T10:48:50.956Z,4.15
2023-02-11T10:51:35.686Z,4.21
2023-02-11T10:54:04.591Z,4.27
2023-02-11T10:56:36.578Z,4.32
2023-02-11T10:59:21.145Z,4.35
2023-02-11T11:05:22.848Z,4.41
2023-02-11T11:07:56.870Z,4.43
2023-02-11T11:10:47.494Z,4.44
2023-02-11T11:13:33.540Z,4.46
2023-02-11T11:16:14.252Z,4.48
2023-02-11T11:18:45.722Z,4.50
2023-02-11T11:21:24.934Z,4.51
2023-02-11T11:24:02.349Z,4.53
2023-02-11T11:26:43.343Z,4.55
2023-02-11T11:29:21.203Z,4.57
2023-02-11T11:32:04.964Z,4.59
2023-02-11T11:34:42.328Z,4.61
2023-02-11T11:37:24.542Z,4.65
2023-02-11T11:40:21.373Z,4.71
2023-02-11T11:43:23.392Z,4.81
2023-02-11T11:46:00.255Z,4.94
2023-02-11T11:48:41.039Z,5.06
2023-02-11T11:51:14.270Z,5.18
2023-02-11T11:53:59.849Z,5.28
2023-02-11T11:56:34.608Z,5.39
2023-02-11T11:59:14.434Z,5.47
2023-02-11T12:01:52.363Z,5.57
2023-02-11T12:04:40.979Z,5.64
2023-02-11T12:07:31.378Z,5.69
2023-02-11T12:10:18.519Z,5.74
2023-02-11T12:12:56.855Z,5.79
2023-02-11T12:15:34.499Z,5.83
2023-02-11T12:18:21.611Z,5.83
2023-02-11T12:20:53.174Z,5.81
2023-02-11T12:23:46.739Z,5.79
2023-02-11T12:26:22.601Z,5.76
2023-02-11T12:29:32.560Z,5.76
2023-02-11T12:32:30.959Z,5.78
2023-02-11T12:35:24.084Z,5.81
2023-02-11T12:38:22.063Z,5.84
2023-02-11T12:41:16.282Z,5.88
2023-02-11T12:43:45.744Z,5.91
2023-02-11T12:46:29.289Z,5.91
2023-02-11T12:49:03.199Z,5.91
2023-02-11T12:51:42.901Z,5.91
2023-02-11T12:54:40.794Z,5.90
2023-02-11T12:57:21.680Z,5.89
2023-02-11T13:00:15.962Z,5.89
2023-02-11T13:03:10.445Z,5.89
2023-02-11T13:06:10.482Z,5.89
2023-02-11T13:08:46.790Z,5.89
2023-02-11T13:11:23.727Z,5.90
2023-02-11T13:13:57.722Z,5.90
2023-02-11T13:16:30.060Z,5.90
2023-02-11T13:19:18.535Z,5.91
2023-02-11T13:22:03.320Z,5.92
2023-02-11T13:24:44.805Z,5.93
2023-02-11T13:27:52.184Z,5.93
2023-02-11T13:30:35.963Z,5.93
2023-02-11T13:33:07.169Z,5.92
2023-02-11T13:35:41.088Z,5.90
2023-02-11T13:38:20.515Z,5.88
2023-02-11T13:41:15.370Z,5.87
2023-02-11T13:43:45.494Z,5.86
2023-02-11T13:46:16.229Z,5.86
2023-02-11T13:48:53.630Z,5.85
2023-02-11T13:51:49.087Z,5.86
2023-02-11T13:54:29.801Z,5.88
2023-02-11T13:57:21.055Z,5.89
2023-02-11T13:59:55.480Z,5.89
2023-02-11T14:02:51.778Z,5.90
2023-02-11T14:05:41.869Z,5.90
2023-02-11T14:08:29.936Z,5.88
2023-02-11T14:11:25.896Z,5.86
2023-02-11T14:13:55.599Z,5.83
2023-02-11T14:16:38.004Z,5.82
2023-02-11T14:19:09.407Z,5.79
2023-02-11T14:21:41.382Z,5.77
2023-02-11T14:24:13.761Z,5.77
2023-02-11T14:27:00.151Z,5.78
2023-02-11T14:29:35.617Z,5.76
2023-02-11T14:32:38.500Z,5.76
2023-02-11T14:35:13.505Z,5.74
2023-02-11T14:38:05.862Z,5.73
2023-02-11T14:40:53.356Z,5.72
2023-02-11T14:43:29.100Z,5.70
2023-02-11T14:45:59.597Z,5.70
2023-02-11T14:48:33.206Z,5.70
2023-02-11T14:51:18.140Z,5.69
2023-02-11T14:53:50.736Z,5.68
2023-02-11T14:56:34.756Z,5.66
2023-02-11T14:59:04.982Z,5.64
2023-02-11T15:01:38.293Z,5.60
2023-02-11T15:04:32.014Z,5.57
2023-02-11T15:07:07.170Z,5.53
2023-02-11T15:09:47.673Z,5.47
2023-02-11T15:12:24.602Z,5.40
2023-02-11T15:14:59.395Z,5.32
2023-02-11T15:17:32.964Z,5.25
2023-02-11T15:20:03.711Z,5.18
2023-02-11T15:22:37.901Z,5.12
2023-02-11T15:25:15.505Z,5.06
2023-02-11T15:28:13.561Z,5.01
2023-02-11T15:30:42.982Z,4.95
2023-02-11T15:33:26.263Z,4.91
2023-02-11T15:35:57.186Z,4.85
2023-02-11T15:38:30.685Z,4.81
2023-02-11T15:41:13.348Z,4.77
2023-02-11T15:43:52.230Z,4.73
2023-02-11T15:46:24.213Z,4.70
2023-02-11T15:48:56.249Z,4.67
2023-02-11T15:51:36.253Z,4.64
2023-02-11T15:54:11.296Z,4.61
2023-02-11T15:56:45.264Z,4.58
2023-02-11T15:59:27.098Z,4.56
2023-02-11T16:01:59.323Z,4.53
2023-02-11T16:04:29.120Z,4.51
2023-02-11T16:06:59.813Z,4.49
2023-02-11T16:09:35.896Z,4.47
2023-02-11T16:12:28.112Z,4.44
2023-02-11T16:15:00.962Z,4.42
2023-02-11T16:17:33.025Z,4.40
2023-02-11T16:20:05.610Z,4.38
2023-02-11T16:22:39.012Z,4.37
2023-02-11T16:25:24.984Z,4.35
2023-02-11T16:27:56.206Z,4.34
2023-02-11T16:30:38.640Z,4.33
2023-02-11T16:33:12.220Z,4.32
2023-02-11T16:35:42.995Z,4.33
2023-02-11T16:38:13.764Z,4.32
2023-02-11T16:40:46.428Z,4.33
2023-02-11T16:43:25.113Z,4.34
2023-02-11T16:45:54.829Z,4.36
2023-02-11T16:48:26.556Z,4.36
2023-02-11T16:51:00.480Z,4.37
2023-02-11T16:53:30.894Z,4.39
2023-02-11T16:56:07.160Z,4.41
2023-02-11T16:58:38.085Z,4.42
2023-02-11T17:01:10.582Z,4.44
2023-02-11T17:03:44.452Z,4.45
2023-02-11T17:06:14.885Z,4.47
2023-02-11T17:08:46.013Z,4.48
2023-02-11T17:11:18.190Z,4.49
2023-02-11T17:13:48.872Z,4.51
2023-02-11T17:16:21.946Z,4.53
2023-02-11T17:18:52.238Z,4.54
2023-02-11T17:21:23.893Z,4.56
2023-02-11T17:23:54.743Z,4.58
2023-02-11T17:26:27.482Z,4.61
2023-02-11T17:29:01.556Z,4.63
2023-02-11T17:31:31.637Z,4.65
2023-02-11T17:34:01.714Z,4.67
2023-02-11T17:36:36.316Z,4.67
2023-02-11T17:39:08.303Z,4.69
2023-02-11T17:41:42.040Z,4.69
2023-02-11T17:44:17.306Z,4.70
2023-02-11T17:46:50.391Z,4.69
2023-02-11T17:49:21.347Z,4.68
2023-02-11T17:51:53.532Z,4.67
2023-02-11T17:54:24.368Z,4.66
2023-02-11T17:56:58.711Z,4.64
2023-02-11T17:59:36.765Z,4.63
2023-02-11T18:02:08.464Z,4.62
2023-02-11T18:07:25.805Z,4.58
2023-02-11T18:09:58.247Z,4.55
2023-02-11T18:12:28.570Z,4.54
2023-02-11T18:14:59.288Z,4.53
2023-02-11T18:17:29.685Z,4.52
2023-02-11T18:19:59.437Z,4.51
2023-02-11T18:22:33.975Z,4.50
2023-02-11T18:25:05.687Z,4.49
2023-02-11T18:27:37.582Z,4.49
2023-02-11T18:30:09.151Z,4.47
2023-02-11T18:32:40.699Z,4.44
2023-02-11T18:35:14.946Z,4.42
2023-02-11T18:37:45.639Z,4.41
2023-02-11T18:40:16.404Z,4.40
2023-02-11T18:42:49.835Z,4.40
2023-02-11T18:45:23.416Z,4.40
2023-02-11T18:47:53.912Z,4.39
2023-02-11T18:50:24.630Z,4.38
2023-02-11T18:52:55.249Z,4.38
2023-02-11T18:55:26.918Z,4.37
2023-02-11T18:57:57.832Z,4.36
2023-02-11T19:00:32.501Z,4.35
2023-02-11T19:03:03.333Z,4.34
2023-02-11T19:05:49.844Z,4.34
2023-02-11T19:08:24.954Z,4.34
2023-02-11T19:10:57.506Z,4.34
2023-02-11T19:13:27.874Z,4.34
2023-02-11T19:15:58.895Z,4.34
2023-02-11T19:18:30.240Z,4.35
2023-02-11T19:21:09.139Z,4.37
2023-02-11T19:23:41.663Z,4.38
2023-02-11T19:26:12.781Z,4.38
2023-02-11T19:28:49.048Z,4.39
2023-02-11T19:31:20.748Z,4.39
2023-02-11T19:33:53.730Z,4.40
2023-02-11T19:36:24.958Z,4.40
2023-02-11T19:38:55.015Z,4.41
2023-02-11T19:41:27.673Z,4.41
2023-02-11T19:43:58.154Z,4.41
2023-02-11T19:46:31.479Z,4.41
2023-02-11T19:49:02.952Z,4.41
2023-02-11T19:51:46.528Z,4.41
2023-02-11T19:54:24.110Z,4.41
2023-02-11T19:56:58.770Z,4.41
2023-02-11T19:59:29.725Z,4.41
2023-02-11T20:02:02.786Z,4.41
2023-02-11T20:04:34.436Z,4.42
2023-02-11T20:07:06.331Z,4.42
2023-02-11T20:09:37.256Z,4.42
2023-02-11T20:12:08.373Z,4.43
2023-02-11T20:14:39.468Z,4.44
2023-02-11T20:17:09.882Z,4.44
2023-02-11T20:19:40.690Z,4.44
2023-02-11T20:22:12.195Z,4.45
2023-02-11T20:24:45.971Z,4.45
2023-02-11T20:27:17.330Z,4.47
2023-02-11T20:29:49.747Z,4.47
2023-02-11T20:32:23.178Z,4.48
2023-02-11T20:34:57.767Z,4.48
2023-02-11T20:37:29.446Z,4.49
2023-02-11T20:40:00.853Z,4.50
2023-02-11T20:42:31.420Z,4.52
2023-02-11T20:45:05.604Z,4.54
2023-02-11T20:47:38.815Z,4.54
2023-02-11T20:50:12.252Z,4.54
2023-02-11T20:52:44.397Z,4.55
2023-02-11T20:55:16.366Z,4.56
2023-02-11T20:57:49.792Z,4.56
2023-02-11T21:00:23.638Z,4.57
2023-02-11T21:02:55.418Z,4.57
2023-02-11T21:05:27.901Z,4.57
2023-02-11T21:07:58.833Z,4.58
2023-02-11T21:10:31.709Z,4.58
2023-02-11T21:13:04.401Z,4.58
2023-02-11T21:15:38.010Z,4.58
2023-02-11T21:18:09.519Z,4.59
2023-02-11T21:20:40.672Z,4.60
2023-02-11T21:23:11.817Z,4.61
2023-02-11T21:25:42.072Z,4.62
2023-02-11T21:28:13.629Z,4.61
2023-02-11T21:30:44.031Z,4.61
2023-02-11T21:33:13.857Z,4.62
2023-02-11T21:35:43.459Z,4.62
2023-02-11T21:38:15.447Z,4.63
2023-02-11T21:40:45.994Z,4.64
2023-02-11T21:43:16.605Z,4.65
2023-02-11T21:45:49.910Z,4.67
2023-02-11T21:48:20.727Z,4.67
2023-02-11T21:50:51.522Z,4.68
2023-02-11T21:53:20.785Z,4.69
2023-02-11T21:55:51.781Z,4.70
2023-02-11T21:58:21.278Z,4.72
2023-02-11T22:00:53.330Z,4.71
2023-02-11T22:03:22.136Z,4.72
2023-02-11T22:05:54.335Z,4.71
2023-02-11T22:08:24.919Z,4.71
2023-02-11T22:10:54.372Z,4.71
2023-02-11T22:13:22.999Z,4.71
2023-02-11T22:15:59.938Z,4.71
2023-02-11T22:18:30.553Z,4.72
2023-02-11T22:21:04.223Z,4.72
2023-02-11T22:23:36.685Z,4.72
2023-02-11T22:26:08.340Z,4.72
2023-02-11T22:28:39.318Z,4.72
2023-02-11T22:31:12.295Z,4.72
2023-02-11T22:33:41.475Z,4.71
2023-02-11T22:36:17.573Z,4.72
2023-02-11T22:38:46.418Z,4.71
2023-02-11T22:41:15.307Z,4.72
2023-02-11T22:43:44.601Z,4.71
2023-02-11T22:46:16.261Z,4.70
2023-02-11T22:48:45.435Z,4.70
2023-02-11T22:51:17.084Z,4.70
2023-02-11T22:53:50.299Z,4.69
2023-02-11T22:56:19.382Z,4.69
2023-02-11T22:58:49.015Z,4.70
2023-02-11T23:01:18.655Z,4.69
2023-02-11T23:03:47.505Z,4.69
2023-02-11T23:06:16.906Z,4.69
2023-02-11T23:08:45.699Z,4.69
2023-02-11T23:11:20.635Z,4.68
2023-02-11T23:13:51.239Z,4.68
2023-02-11T23:16:23.353Z,4.68
2023-02-11T23:18:53.259Z,4.68
2023-02-11T23:21:24.402Z,4.68
2023-02-11T23:23:58.294Z,4.68
2023-02-11T23:26:27.882Z,4.68
2023-02-11T23:28:58.479Z,4.68
2023-02-11T23:31:30.810Z,4.68
2023-02-11T23:34:00.277Z,4.69
2023-02-11T23:36:29.188Z,4.69
2023-02-11T23:38:57.989Z,4.69
2023-02-11T23:41:26.643Z,4.69
2023-02-11T23:43:58.238Z,4.70
2023-02-11T23:46:27.835Z,4.71
2023-02-11T23:48:56.509Z,4.71
2023-02-11T23:51:25.617Z,4.70
2023-02-11T23:53:56.386Z,4.71
2023-02-11T23:56:28.588Z,4.71
2023-02-11T23:58:59.870Z,4.71
